createdAt,value
2018-12-07T00:01:46.078Z,1.10
2018-12-07T00:04:12.772Z,0.93
2018-12-07T00:06:39.429Z,0.98
2018-12-07T00:09:06.135Z,1.10
2018-12-07T00:11:32.817Z,0.80
2018-12-07T00:13:59.479Z,1.00
2018-12-07T00:16:26.177Z,0.90
2018-12-07T00:18:52.853Z,0.90
2018-12-07T00:21:19.520Z,0.75
2018-12-07T00:23:46.205Z,1.00
2018-12-07T00:26:12.889Z,1.10
2018-12-07T00:28:39.591Z,1.10
2018-12-07T00:31:06.376Z,1.12
2018-12-07T00:33:33.070Z,0.80
2018-12-07T00:35:59.724Z,0.90
2018-12-07T00:38:26.565Z,0.98
2018-12-07T00:40:53.808Z,0.80
2018-12-07T00:43:20.965Z,0.90
2018-12-07T00:45:47.640Z,1.00
2018-12-07T00:48:14.324Z,0.98
2018-12-07T00:50:40.968Z,1.10
2018-12-07T00:53:07.648Z,1.52
2018-12-07T00:55:37.293Z,1.00
2018-12-07T00:58:03.993Z,0.78
2018-12-07T01:00:30.696Z,0.90
2018-12-07T01:02:58.685Z,1.00
2018-12-07T01:05:25.481Z,0.80
2018-12-07T01:07:52.193Z,0.70
2018-12-07T01:10:18.881Z,1.00
2018-12-07T01:12:45.560Z,0.82
2018-12-07T01:15:12.275Z,0.80
2018-12-07T01:17:39.470Z,0.90
2018-12-07T01:20:13.120Z,0.90
2018-12-07T01:22:39.803Z,0.82
2018-12-07T01:25:06.506Z,1.00
2018-12-07T01:27:33.199Z,0.95
2018-12-07T01:29:59.900Z,0.80
2018-12-07T01:32:26.560Z,0.80
2018-12-07T01:34:53.246Z,0.90
2018-12-07T01:37:19.933Z,0.80
2018-12-07T01:39:46.884Z,0.80
2018-12-07T01:42:13.564Z,1.02
2018-12-07T01:44:40.236Z,1.05
2018-12-07T01:47:06.880Z,0.88
2018-12-07T01:49:33.557Z,0.88
2018-12-07T01:52:00.400Z,0.72
2018-12-07T01:54:27.053Z,0.95
2018-12-07T01:56:53.825Z,0.98
2018-12-07T01:59:20.841Z,0.60
2018-12-07T02:01:47.492Z,1.02
2018-12-07T02:04:14.171Z,0.90
2018-12-07T02:06:40.845Z,0.70
2018-12-07T02:09:07.513Z,0.90
2018-12-07T02:11:34.748Z,1.20
2018-12-07T02:14:01.682Z,0.75
2018-12-07T02:16:28.329Z,0.95
2018-12-07T02:18:55.025Z,1.10
2018-12-07T02:21:21.705Z,0.78
2018-12-07T02:23:48.841Z,0.98
2018-12-07T02:26:15.521Z,1.00
2018-12-07T02:28:42.197Z,0.80
2018-12-07T02:31:08.861Z,0.80
2018-12-07T02:33:35.529Z,0.85
2018-12-07T02:36:02.208Z,1.12
2018-12-07T02:38:28.867Z,1.00
2018-12-07T02:40:55.549Z,0.95
2018-12-07T02:43:22.232Z,1.07
2018-12-07T02:45:48.872Z,0.80
2018-12-07T02:48:15.541Z,1.00
2018-12-07T02:50:42.237Z,0.85
2018-12-07T02:53:15.904Z,0.68
2018-12-07T02:55:42.589Z,0.90
2018-12-07T02:58:09.304Z,0.80
2018-12-07T03:00:35.989Z,0.90
2018-12-07T03:03:02.710Z,0.70
2018-12-07T03:05:29.912Z,0.80
2018-12-07T03:07:56.588Z,0.98
2018-12-07T03:10:23.289Z,0.70
2018-12-07T03:12:49.945Z,0.90
2018-12-07T03:15:16.632Z,0.85
2018-12-07T03:17:43.309Z,0.88
2018-12-07T03:20:10.185Z,0.80
2018-12-07T03:22:36.873Z,0.50
2018-12-07T03:25:04.740Z,0.60
2018-12-07T03:27:31.396Z,1.12
2018-12-07T03:30:05.048Z,1.00
2018-12-07T03:32:38.825Z,0.90
2018-12-07T03:35:05.580Z,0.90
2018-12-07T03:37:32.236Z,0.90
2018-12-07T03:39:58.885Z,1.02
2018-12-07T03:42:25.559Z,1.00
2018-12-07T03:44:52.233Z,1.70
2018-12-07T03:47:18.885Z,1.10
2018-12-07T03:49:45.577Z,0.72
2018-12-07T03:52:12.264Z,0.80
2018-12-07T03:54:38.926Z,1.02
2018-12-07T03:57:05.629Z,0.90
2018-12-07T03:59:32.309Z,0.60
2018-12-07T04:01:58.956Z,0.65
2018-12-07T04:04:25.697Z,0.50
2018-12-07T04:06:52.437Z,0.75
2018-12-07T04:09:19.078Z,0.78
2018-12-07T04:11:45.760Z,0.60
2018-12-07T04:14:12.442Z,0.50
2018-12-07T04:16:39.084Z,0.60
2018-12-07T04:19:05.761Z,0.60
2018-12-07T04:21:32.434Z,0.70
2018-12-07T04:23:59.085Z,0.70
2018-12-07T04:26:25.764Z,0.60
2018-12-07T04:28:52.441Z,0.60
2018-12-07T04:31:19.077Z,0.65
2018-12-07T04:33:45.757Z,0.88
2018-12-07T04:36:19.205Z,0.70
2018-12-07T04:38:45.885Z,0.80
2018-12-07T04:41:12.539Z,0.40
2018-12-07T04:43:39.182Z,0.50
2018-12-07T04:46:05.892Z,0.68
2018-12-07T04:48:32.532Z,0.60
2018-12-07T04:50:59.210Z,0.53
2018-12-07T04:53:25.868Z,0.50
2018-12-07T04:55:52.590Z,0.50
2018-12-07T04:58:19.272Z,0.55
2018-12-07T05:00:45.956Z,0.65
2018-12-07T05:03:12.625Z,0.50
2018-12-07T05:05:39.556Z,0.50
2018-12-07T05:08:06.206Z,0.60
2018-12-07T05:10:32.889Z,0.60
2018-12-07T05:12:59.531Z,0.70
2018-12-07T05:15:26.218Z,0.50
2018-12-07T05:17:52.902Z,0.50
2018-12-07T05:20:26.549Z,0.80
2018-12-07T05:22:53.428Z,0.60
2018-12-07T05:25:20.077Z,0.70
2018-12-07T05:27:46.753Z,0.60
2018-12-07T05:30:13.413Z,0.50
2018-12-07T05:32:40.089Z,0.45
2018-12-07T05:35:06.785Z,0.50
2018-12-07T05:37:33.466Z,0.70
2018-12-07T05:40:00.107Z,0.40
2018-12-07T05:42:26.783Z,0.50
2018-12-07T05:44:53.426Z,0.68
2018-12-07T05:47:20.124Z,0.40
2018-12-07T05:49:53.733Z,0.40
2018-12-07T05:52:20.425Z,0.50
2018-12-07T05:54:47.105Z,0.60
2018-12-07T05:57:14.278Z,0.50
2018-12-07T05:59:40.952Z,0.50
2018-12-07T06:02:07.597Z,0.50
2018-12-07T06:04:34.430Z,0.50
2018-12-07T06:07:01.117Z,0.50
2018-12-07T06:09:27.821Z,0.53
2018-12-07T06:11:55.189Z,0.50
2018-12-07T06:14:21.982Z,0.70
2018-12-07T06:16:48.637Z,0.75
2018-12-07T06:19:15.324Z,0.80
2018-12-07T06:21:41.966Z,0.60
2018-12-07T06:24:08.644Z,0.60
2018-12-07T06:26:35.293Z,0.50
2018-12-07T06:29:02.349Z,0.60
2018-12-07T06:31:29.113Z,0.40
2018-12-07T06:33:55.764Z,0.57
2018-12-07T06:36:22.461Z,0.50
2018-12-07T06:38:49.109Z,0.60
2018-12-07T06:41:15.790Z,0.57
2018-12-07T06:43:42.474Z,0.60
2018-12-07T06:46:09.164Z,0.93
2018-12-07T06:48:35.813Z,0.60
2018-12-07T06:51:02.508Z,0.40
2018-12-07T06:53:29.176Z,0.60
2018-12-07T06:55:55.860Z,0.60
2018-12-07T06:58:22.604Z,0.60
2018-12-07T07:00:49.371Z,0.50
2018-12-07T07:03:16.061Z,0.50
2018-12-07T07:05:42.749Z,0.60
2018-12-07T07:08:09.436Z,0.75
2018-12-07T07:10:36.084Z,0.68
2018-12-07T07:13:02.784Z,0.50
2018-12-07T07:15:29.438Z,0.50
2018-12-07T07:17:56.124Z,0.50
2018-12-07T07:20:22.780Z,0.42
2018-12-07T07:22:56.377Z,0.55
2018-12-07T07:25:23.029Z,0.50
2018-12-07T07:27:49.715Z,0.60
2018-12-07T07:30:16.364Z,0.68
2018-12-07T07:32:43.054Z,0.40
2018-12-07T07:35:09.733Z,0.72
2018-12-07T07:37:36.425Z,0.60
2018-12-07T07:40:03.973Z,0.60
2018-12-07T07:42:30.796Z,0.60
2018-12-07T07:44:57.501Z,0.65
2018-12-07T07:47:24.148Z,0.60
2018-12-07T07:49:50.832Z,0.60
2018-12-07T07:52:17.509Z,0.40
2018-12-07T07:54:44.229Z,0.72
2018-12-07T07:57:10.892Z,0.60
2018-12-07T07:59:37.584Z,0.53
2018-12-07T08:02:04.523Z,0.60
2018-12-07T08:04:31.221Z,0.50
2018-12-07T08:06:57.889Z,0.50
2018-12-07T08:09:24.727Z,0.60
2018-12-07T08:11:51.394Z,0.60
2018-12-07T08:14:18.088Z,0.70
2018-12-07T08:16:44.828Z,0.50
2018-12-07T08:19:11.480Z,0.80
2018-12-07T08:21:38.168Z,0.70
2018-12-07T08:24:04.862Z,0.80
2018-12-07T08:26:31.548Z,0.80
2018-12-07T08:28:58.201Z,0.90
2018-12-07T08:31:24.896Z,0.70
2018-12-07T08:33:51.560Z,0.63
2018-12-07T08:36:18.285Z,0.60
2018-12-07T08:38:44.985Z,0.90
2018-12-07T08:41:12.180Z,0.63
2018-12-07T08:43:38.870Z,0.70
2018-12-07T08:46:05.561Z,0.70
2018-12-07T08:48:32.304Z,0.60
2018-12-07T08:50:58.990Z,0.82
2018-12-07T08:53:25.677Z,1.03
2018-12-07T08:55:52.496Z,1.10
2018-12-07T08:58:19.191Z,0.70
2018-12-07T09:00:45.878Z,0.90
2018-12-07T09:03:12.606Z,0.80
2018-12-07T09:05:39.264Z,1.27
2018-12-07T09:08:05.981Z,0.50
2018-12-07T09:10:32.641Z,0.70
2018-12-07T09:12:59.332Z,0.70
2018-12-07T09:15:26.019Z,0.60
2018-12-07T09:17:52.705Z,0.80
2018-12-07T09:20:26.647Z,0.60
2018-12-07T09:22:53.498Z,1.40
2018-12-07T09:25:20.156Z,0.67
2018-12-07T09:27:53.930Z,0.80
2018-12-07T09:30:20.604Z,0.80
2018-12-07T09:32:47.360Z,1.10
2018-12-07T09:35:14.298Z,0.70
2018-12-07T09:37:48.075Z,0.50
2018-12-07T09:40:15.013Z,0.40
2018-12-07T09:42:41.849Z,0.83
2018-12-07T09:45:08.738Z,0.67
2018-12-07T09:47:35.505Z,0.60
2018-12-07T09:50:02.751Z,0.60
2018-12-07T09:52:29.409Z,0.70
2018-12-07T09:54:56.223Z,0.63
2018-12-07T09:57:22.878Z,1.40
2018-12-07T09:59:49.520Z,0.70
2018-12-07T10:02:16.362Z,0.60
2018-12-07T10:04:43.008Z,0.77
2018-12-07T10:07:09.701Z,0.60
2018-12-07T10:09:36.545Z,0.50
2018-12-07T10:12:03.313Z,0.90
2018-12-07T10:14:29.968Z,0.80
2018-12-07T10:16:56.655Z,0.57
2018-12-07T10:19:23.314Z,0.60
2018-12-07T10:21:50.001Z,0.60
2018-12-07T10:24:16.659Z,0.70
2018-12-07T10:26:43.349Z,1.60
2018-12-07T10:29:10.341Z,0.87
2018-12-07T10:31:36.993Z,0.70
2018-12-07T10:34:03.693Z,0.80
2018-12-07T10:36:30.340Z,0.70
2018-12-07T10:38:57.065Z,0.70
2018-12-07T10:41:23.725Z,0.50
2018-12-07T10:43:50.428Z,0.60
2018-12-07T10:46:17.186Z,0.60
2018-12-07T10:48:43.877Z,0.60
2018-12-07T10:51:11.640Z,0.60
2018-12-07T10:53:38.324Z,0.60
2018-12-07T10:56:04.992Z,0.70
2018-12-07T10:58:31.668Z,0.80
2018-12-07T11:01:04.479Z,0.60
2018-12-07T11:03:37.433Z,0.80
2018-12-07T11:06:10.125Z,0.83
2018-12-07T11:11:49.976Z,0.90
2018-12-07T11:14:18.722Z,0.53
2018-12-07T11:16:51.266Z,0.67
2018-12-07T11:19:23.936Z,0.67
2018-12-07T11:25:05.594Z,0.50
2018-12-07T11:27:38.232Z,0.67
2018-12-07T11:30:11.815Z,0.60
2018-12-07T11:32:40.565Z,0.60
2018-12-07T11:35:07.488Z,0.60
2018-12-07T11:37:34.168Z,0.60
2018-12-07T11:40:00.858Z,0.57
2018-12-07T11:42:27.517Z,0.60
2018-12-07T11:45:01.184Z,0.50
2018-12-07T11:47:27.841Z,0.50
2018-12-07T11:49:54.520Z,0.60
2018-12-07T11:52:21.172Z,0.60
2018-12-07T11:54:47.849Z,0.90
2018-12-07T11:57:14.500Z,0.70
2018-12-07T11:59:41.205Z,0.90
2018-12-07T12:02:07.860Z,0.50
2018-12-07T12:04:34.570Z,0.80
2018-12-07T12:07:01.255Z,0.50
2018-12-07T12:09:27.952Z,1.07
2018-12-07T12:11:54.640Z,0.60
2018-12-07T12:14:21.288Z,0.90
2018-12-07T12:16:47.977Z,0.70
2018-12-07T12:19:14.629Z,0.90
2018-12-07T12:21:41.308Z,0.57
2018-12-07T12:24:07.949Z,0.80
2018-12-07T12:26:34.627Z,0.60
2018-12-07T12:29:01.282Z,0.70
2018-12-07T12:31:28.001Z,0.80
2018-12-07T12:34:01.605Z,0.70
2018-12-07T12:36:28.322Z,0.80
2018-12-07T12:38:54.970Z,1.00
2018-12-07T12:41:22.817Z,1.10
2018-12-07T12:43:49.649Z,0.90
2018-12-07T12:46:16.334Z,0.77
2018-12-07T12:48:43.038Z,0.80
2018-12-07T12:51:09.684Z,0.57
2018-12-07T12:53:36.361Z,0.70
2018-12-07T12:56:03.024Z,0.80
2018-12-07T12:58:29.716Z,0.90
2018-12-07T13:00:56.442Z,0.80
2018-12-07T13:03:23.224Z,0.77
2018-12-07T13:05:49.866Z,0.97
2018-12-07T13:08:16.536Z,0.70
2018-12-07T13:10:43.180Z,0.83
2018-12-07T13:13:09.870Z,0.80
2018-12-07T13:15:36.517Z,0.77
2018-12-07T13:18:03.215Z,1.00
2018-12-07T13:20:29.909Z,0.70
2018-12-07T13:22:56.586Z,0.70
2018-12-07T13:25:23.409Z,0.50
2018-12-07T13:27:50.045Z,0.97
2018-12-07T13:30:16.718Z,0.70
2018-12-07T13:32:43.407Z,1.07
2018-12-07T13:35:10.068Z,0.90
2018-12-07T13:37:36.767Z,0.80
2018-12-07T13:40:04.604Z,0.83
2018-12-07T13:42:31.524Z,0.80
2018-12-07T13:44:58.473Z,0.80
2018-12-07T13:47:25.354Z,0.90
2018-12-07T13:49:54.361Z,0.50
2018-12-07T13:52:21.118Z,0.60
2018-12-07T13:54:47.918Z,0.90
2018-12-07T13:57:14.798Z,1.00
2018-12-07T13:59:41.703Z,1.20
2018-12-07T14:02:08.518Z,1.40
2018-12-07T14:04:35.450Z,1.00
2018-12-07T14:07:02.301Z,0.80
2018-12-07T14:09:29.251Z,0.90
2018-12-07T14:11:56.155Z,0.77
2018-12-07T14:14:22.892Z,1.00
2018-12-07T14:16:49.830Z,1.00
2018-12-07T14:19:16.966Z,0.90
2018-12-07T14:21:43.789Z,1.00
2018-12-07T14:24:10.886Z,1.10
2018-12-07T14:26:37.604Z,1.10
2018-12-07T14:29:04.505Z,1.00
2018-12-07T14:31:31.234Z,1.33
2018-12-07T14:33:57.951Z,0.80
2018-12-07T14:36:24.689Z,1.30
2018-12-07T14:38:51.551Z,1.17
2018-12-07T14:41:18.450Z,1.13
2018-12-07T14:43:45.237Z,1.40
2018-12-07T14:46:12.276Z,3.47
2018-12-07T14:48:39.326Z,3.20
2018-12-07T14:51:06.298Z,2.10
2018-12-07T14:53:33.061Z,1.30
2018-12-07T14:55:59.756Z,2.63
2018-12-07T14:58:26.619Z,2.57
2018-12-07T15:00:53.525Z,1.53
2018-12-07T15:03:21.844Z,1.40
2018-12-07T15:05:49.166Z,1.23
2018-12-07T15:08:15.945Z,1.23
2018-12-07T15:10:42.672Z,1.20
2018-12-07T15:13:09.654Z,1.17
2018-12-07T15:15:36.583Z,1.10
2018-12-07T15:18:03.652Z,0.87
2018-12-07T15:20:30.398Z,1.37
2018-12-07T15:22:57.107Z,3.23
2018-12-07T15:25:24.006Z,3.60
2018-12-07T15:27:50.783Z,3.27
2018-12-07T15:30:17.536Z,5.30
2018-12-07T15:32:44.445Z,4.23
2018-12-07T15:35:11.320Z,3.13
2018-12-07T15:37:38.171Z,1.50
2018-12-07T15:40:06.550Z,1.87
2018-12-07T15:42:33.370Z,4.40
2018-12-07T15:45:00.694Z,3.43
2018-12-07T15:47:27.532Z,4.67
2018-12-07T15:49:54.644Z,2.30
2018-12-07T15:52:21.543Z,2.70
2018-12-07T15:54:48.467Z,1.60
2018-12-07T15:57:15.425Z,2.33
2018-12-07T15:59:42.358Z,2.07
2018-12-07T16:02:09.148Z,1.27
2018-12-07T16:04:35.998Z,1.60
2018-12-07T16:07:09.747Z,1.13
2018-12-07T16:09:36.650Z,0.97
2018-12-07T16:12:10.609Z,1.13
2018-12-07T16:14:37.604Z,1.23
2018-12-07T16:17:04.542Z,1.00
2018-12-07T16:19:31.418Z,0.80
2018-12-07T16:21:58.348Z,0.73
2018-12-07T16:24:25.232Z,1.30
2018-12-07T16:26:52.144Z,0.97
2018-12-07T16:29:19.021Z,1.10
2018-12-07T16:31:46.006Z,1.00
2018-12-07T16:34:13.416Z,1.20
2018-12-07T16:36:40.277Z,1.07
2018-12-07T16:39:13.896Z,1.20
2018-12-07T16:41:40.924Z,1.47
2018-12-07T16:44:07.909Z,1.10
2018-12-07T16:46:35.024Z,1.10
2018-12-07T16:49:02.025Z,1.93
2018-12-07T16:51:28.885Z,2.13
2018-12-07T16:53:55.585Z,2.43
2018-12-07T16:56:22.571Z,1.73
2018-12-07T16:58:49.423Z,2.63
2018-12-07T17:01:16.177Z,2.23
2018-12-07T17:03:43.154Z,1.87
2018-12-07T17:06:10.007Z,2.27
2018-12-07T17:08:36.911Z,2.60
2018-12-07T17:11:10.835Z,2.10
2018-12-07T17:13:37.549Z,2.70
2018-12-07T17:16:04.449Z,2.27
2018-12-07T17:18:31.454Z,2.00
2018-12-07T17:20:58.205Z,1.90
2018-12-07T17:23:24.888Z,1.70
2018-12-07T17:25:51.544Z,2.37
2018-12-07T17:28:18.339Z,2.10
2018-12-07T17:30:45.211Z,1.65
2018-12-07T17:33:12.163Z,1.67
2018-12-07T17:35:39.033Z,2.23
2018-12-07T17:38:05.854Z,2.00
2018-12-07T17:40:32.715Z,2.77
2018-12-07T17:42:59.587Z,2.15
2018-12-07T17:45:26.394Z,2.75
2018-12-07T17:47:53.429Z,2.47
2018-12-07T17:50:22.303Z,3.35
2018-12-07T17:52:49.075Z,2.70
2018-12-07T17:55:16.152Z,3.25
2018-12-07T17:57:43.007Z,2.90
2018-12-07T18:00:11.847Z,3.22
2018-12-07T18:02:39.981Z,3.13
2018-12-07T18:05:07.190Z,2.70
2018-12-07T18:07:34.192Z,3.10
2018-12-07T18:10:01.037Z,2.75
2018-12-07T18:12:27.807Z,2.25
2018-12-07T18:15:01.500Z,2.50
2018-12-07T18:17:28.237Z,3.02
2018-12-07T18:19:55.039Z,3.80
2018-12-07T18:22:22.011Z,3.77
2018-12-07T18:24:49.028Z,3.77
2018-12-07T18:27:15.875Z,3.20
2018-12-07T18:29:42.636Z,2.90
2018-12-07T18:32:09.474Z,3.22
2018-12-07T18:34:36.245Z,4.00
2018-12-07T18:37:09.863Z,3.40
2018-12-07T18:39:36.678Z,2.95
2018-12-07T18:42:03.446Z,3.72
2018-12-07T18:44:31.497Z,3.70
2018-12-07T18:46:59.019Z,4.15
2018-12-07T18:49:26.681Z,5.20
2018-12-07T18:51:53.450Z,3.15
2018-12-07T18:54:20.168Z,5.12
2018-12-07T18:56:47.774Z,2.55
2018-12-07T18:59:14.727Z,5.00
2018-12-07T19:01:41.717Z,2.50
2018-12-07T19:04:08.536Z,2.60
2018-12-07T19:06:35.383Z,2.60
2018-12-07T19:09:05.411Z,2.90
2018-12-07T19:11:32.288Z,2.60
2018-12-07T19:13:59.231Z,2.70
2018-12-07T19:16:26.088Z,3.40
2018-12-07T19:18:53.191Z,2.90
2018-12-07T19:21:20.251Z,3.02
2018-12-07T19:23:46.978Z,2.55
2018-12-07T19:26:14.035Z,2.95
2018-12-07T19:31:43.205Z,4.22
2018-12-07T19:34:09.963Z,3.15
2018-12-07T19:36:37.473Z,3.40
2018-12-07T19:39:06.384Z,3.80
2018-12-07T19:41:34.638Z,3.27
2018-12-07T19:44:01.738Z,3.62
2018-12-07T19:46:28.684Z,3.90
2018-12-07T19:48:56.896Z,3.50
2018-12-07T19:51:23.913Z,3.47
2018-12-07T19:53:51.750Z,3.33
2018-12-07T19:56:18.765Z,3.58
2018-12-07T19:58:45.473Z,2.90
2018-12-07T20:01:12.593Z,2.85
2018-12-07T20:03:39.544Z,3.20
2018-12-07T20:06:06.984Z,4.10
2018-12-07T20:11:36.609Z,4.60
2018-12-07T20:14:10.210Z,6.60
2018-12-07T20:16:37.596Z,6.35
2018-12-07T20:19:04.626Z,7.75
2018-12-07T20:21:38.641Z,6.92
2018-12-07T20:24:05.347Z,10.50
2018-12-07T20:26:32.265Z,4.17
2018-12-07T20:29:00.125Z,6.15
2018-12-07T20:31:28.720Z,6.37
2018-12-07T20:33:55.518Z,3.45
2018-12-07T20:39:24.592Z,2.50
2018-12-07T20:41:51.422Z,2.37
2018-12-07T20:44:18.272Z,1.90
2018-12-07T20:46:44.958Z,2.10
2018-12-07T20:49:12.739Z,2.40
2018-12-07T20:51:39.991Z,3.00
2018-12-07T20:54:06.959Z,2.30
2018-12-07T20:56:33.895Z,1.95
2018-12-07T20:59:00.777Z,2.20
2018-12-07T21:01:27.529Z,2.25
2018-12-07T21:04:23.321Z,2.10
2018-12-07T21:10:31.859Z,2.10
2018-12-07T21:13:33.600Z,2.60
2018-12-07T21:16:16.617Z,2.33
2018-12-07T21:18:43.428Z,1.92
2018-12-07T21:21:10.338Z,1.70
2018-12-07T21:23:38.224Z,2.17
2018-12-07T21:26:05.223Z,1.55
2018-12-07T21:28:32.189Z,1.50
2018-12-07T21:30:59.738Z,1.52
2018-12-07T21:33:26.445Z,1.30
2018-12-07T21:39:19.238Z,1.12
2018-12-07T21:41:45.999Z,0.95
2018-12-07T21:44:12.912Z,1.00
2018-12-07T21:46:39.885Z,0.90
2018-12-07T21:49:06.857Z,0.95
2018-12-07T21:51:53.197Z,0.78
2018-12-07T21:54:20.057Z,0.70
2018-12-07T21:56:46.792Z,0.80
2018-12-07T21:59:13.607Z,0.72
2018-12-07T22:01:40.534Z,0.65
2018-12-07T22:04:07.397Z,0.82
2018-12-07T22:06:34.510Z,0.70
2018-12-07T22:09:01.672Z,0.50
2018-12-07T22:11:28.868Z,0.60
2018-12-07T22:13:55.817Z,0.55
2018-12-07T22:16:22.496Z,0.70
2018-12-07T22:18:49.459Z,0.50
2018-12-07T22:21:16.328Z,0.50
2018-12-07T22:23:43.091Z,0.40
2018-12-07T22:26:10.047Z,0.50
2018-12-07T22:28:36.864Z,0.57
2018-12-07T22:31:03.712Z,0.40
2018-12-07T22:33:30.651Z,0.60
2018-12-07T22:35:57.357Z,0.60
2018-12-07T22:38:24.303Z,0.40
2018-12-07T22:40:51.126Z,0.60
2018-12-07T22:43:17.976Z,0.60
2018-12-07T22:45:44.905Z,0.53
2018-12-07T22:48:11.697Z,0.57
2018-12-07T22:50:38.828Z,0.57
2018-12-07T22:53:05.460Z,0.45
2018-12-07T22:55:32.133Z,0.50
2018-12-07T22:57:58.781Z,0.50
2018-12-07T23:00:25.702Z,0.50
2018-12-07T23:02:52.387Z,0.60
2018-12-07T23:05:19.068Z,0.50
2018-12-07T23:07:45.772Z,0.50
2018-12-07T23:10:12.493Z,0.50
2018-12-07T23:12:39.144Z,0.50
2018-12-07T23:15:07.778Z,0.50
2018-12-07T23:17:34.480Z,0.50
2018-12-07T23:20:01.229Z,0.60
2018-12-07T23:22:27.872Z,0.80
2018-12-07T23:24:54.534Z,0.45
2018-12-07T23:27:21.171Z,0.50
2018-12-07T23:29:48.094Z,0.50
2018-12-07T23:32:21.772Z,0.50
2018-12-07T23:34:48.448Z,0.50
2018-12-07T23:37:15.140Z,0.50
2018-12-07T23:39:42.127Z,0.47
2018-12-07T23:42:08.821Z,0.50
2018-12-07T23:44:35.468Z,0.50
2018-12-07T23:47:02.108Z,0.50
2018-12-07T23:49:28.769Z,0.50
2018-12-07T23:51:55.414Z,0.60
2018-12-07T23:54:22.088Z,0.68
2018-12-07T23:56:48.748Z,0.60
2018-12-07T23:59:15.432Z,0.60
